sensor_id;sensor_type;location;lat;lon;timestamp;P1;durP1;ratioP1;P2;durP2;ratioP2
20908;SDS011;10614;53.198;6.570;2023-08-08T00:01:29;5.47;;;3.55;;
20908;SDS011;10614;53.198;6.570;2023-08-08T00:03:31;7.50;;;3.95;;
20908;SDS011;10614;53.198;6.570;2023-08-08T00:05:32;8.40;;;4.15;;
20908;SDS011;10614;53.198;6.570;2023-08-08T00:07:33;9.48;;;4.13;;
20908;SDS011;10614;53.198;6.570;2023-08-08T00:09:36;8.02;;;3.63;;
20908;SDS011;10614;53.198;6.570;2023-08-08T00:11:39;7.03;;;3.90;;
20908;SDS011;10614;53.198;6.570;2023-08-08T00:13:41;9.60;;;4.05;;
20908;SDS011;10614;53.198;6.570;2023-08-08T00:15:42;6.53;;;3.67;;
20908;SDS011;10614;53.198;6.570;2023-08-08T00:17:44;10.60;;;4.40;;
20908;SDS011;10614;53.198;6.570;2023-08-08T00:19:46;9.00;;;4.45;;
20908;SDS011;10614;53.198;6.570;2023-08-08T00:21:48;7.70;;;4.18;;
20908;SDS011;10614;53.198;6.570;2023-08-08T00:23:48;6.88;;;3.97;;
20908;SDS011;10614;53.198;6.570;2023-08-08T00:25:50;7.47;;;4.18;;
20908;SDS011;10614;53.198;6.570;2023-08-08T00:27:54;8.43;;;4.50;;
20908;SDS011;10614;53.198;6.570;2023-08-08T00:29:55;6.97;;;4.45;;
20908;SDS011;10614;53.198;6.570;2023-08-08T00:31:57;9.23;;;4.10;;
20908;SDS011;10614;53.198;6.570;2023-08-08T00:33:59;7.03;;;4.60;;
20908;SDS011;10614;53.198;6.570;2023-08-08T00:36:01;7.30;;;4.40;;
20908;SDS011;10614;53.198;6.570;2023-08-08T00:38:02;9.95;;;4.60;;
20908;SDS011;10614;53.198;6.570;2023-08-08T00:40:05;9.02;;;4.78;;
20908;SDS011;10614;53.198;6.570;2023-08-08T00:42:06;7.70;;;4.78;;
20908;SDS011;10614;53.198;6.570;2023-08-08T00:44:10;10.80;;;4.75;;
20908;SDS011;10614;53.198;6.570;2023-08-08T00:46:11;8.00;;;4.30;;
20908;SDS011;10614;53.198;6.570;2023-08-08T00:48:13;11.20;;;4.32;;
20908;SDS011;10614;53.198;6.570;2023-08-08T00:50:15;11.82;;;5.18;;
20908;SDS011;10614;53.198;6.570;2023-08-08T00:52:18;7.95;;;4.70;;
20908;SDS011;10614;53.198;6.570;2023-08-08T00:54:19;11.77;;;5.10;;
20908;SDS011;10614;53.198;6.570;2023-08-08T00:56:22;8.77;;;4.50;;
20908;SDS011;10614;53.198;6.570;2023-08-08T00:58:24;9.23;;;4.93;;
20908;SDS011;10614;53.198;6.570;2023-08-08T01:00:28;7.57;;;4.43;;
20908;SDS011;10614;53.198;6.570;2023-08-08T01:02:30;8.95;;;4.80;;
20908;SDS011;10614;53.198;6.570;2023-08-08T01:04:31;7.38;;;4.72;;
20908;SDS011;10614;53.198;6.570;2023-08-08T01:06:34;12.48;;;4.82;;
20908;SDS011;10614;53.198;6.570;2023-08-08T01:08:44;8.80;;;4.75;;
20908;SDS011;10614;53.198;6.570;2023-08-08T01:10:48;8.90;;;4.80;;
20908;SDS011;10614;53.198;6.570;2023-08-08T01:12:51;9.10;;;4.53;;
20908;SDS011;10614;53.198;6.570;2023-08-08T01:14:56;10.15;;;4.60;;
20908;SDS011;10614;53.198;6.570;2023-08-08T01:17:00;9.82;;;5.40;;
20908;SDS011;10614;53.198;6.570;2023-08-08T01:19:04;8.23;;;5.15;;
20908;SDS011;10614;53.198;6.570;2023-08-08T01:21:09;10.40;;;5.35;;
20908;SDS011;10614;53.198;6.570;2023-08-08T01:23:12;10.65;;;5.30;;
20908;SDS011;10614;53.198;6.570;2023-08-08T01:25:21;7.95;;;5.00;;
20908;SDS011;10614;53.198;6.570;2023-08-08T01:27:24;8.98;;;4.97;;
20908;SDS011;10614;53.198;6.570;2023-08-08T01:29:26;10.60;;;5.00;;
20908;SDS011;10614;53.198;6.570;2023-08-08T01:31:29;7.10;;;4.85;;
20908;SDS011;10614;53.198;6.570;2023-08-08T01:33:30;9.38;;;4.88;;
20908;SDS011;10614;53.198;6.570;2023-08-08T01:35:35;11.88;;;5.13;;
20908;SDS011;10614;53.198;6.570;2023-08-08T01:37:41;12.60;;;5.10;;
20908;SDS011;10614;53.198;6.570;2023-08-08T01:39:47;8.23;;;4.32;;
20908;SDS011;10614;53.198;6.570;2023-08-08T01:41:54;10.65;;;5.03;;
20908;SDS011;10614;53.198;6.570;2023-08-08T01:43:57;7.97;;;4.32;;
20908;SDS011;10614;53.198;6.570;2023-08-08T01:46:00;12.57;;;4.97;;
20908;SDS011;10614;53.198;6.570;2023-08-08T01:48:05;9.30;;;4.88;;
20908;SDS011;10614;53.198;6.570;2023-08-08T01:50:08;8.88;;;4.55;;
20908;SDS011;10614;53.198;6.570;2023-08-08T01:52:10;9.05;;;4.88;;
20908;SDS011;10614;53.198;6.570;2023-08-08T01:54:12;11.38;;;5.15;;
20908;SDS011;10614;53.198;6.570;2023-08-08T01:56:14;7.07;;;4.55;;
20908;SDS011;10614;53.198;6.570;2023-08-08T01:58:17;9.40;;;5.00;;
20908;SDS011;10614;53.198;6.570;2023-08-08T02:00:19;10.95;;;4.63;;
20908;SDS011;10614;53.198;6.570;2023-08-08T02:02:21;12.48;;;4.72;;
20908;SDS011;10614;53.198;6.570;2023-08-08T02:13:04;7.45;;;4.70;;
20908;SDS011;10614;53.198;6.570;2023-08-08T02:15:07;8.75;;;4.78;;
20908;SDS011;10614;53.198;6.570;2023-08-08T02:17:09;9.10;;;4.85;;
20908;SDS011;10614;53.198;6.570;2023-08-08T02:19:10;9.38;;;4.72;;
20908;SDS011;10614;53.198;6.570;2023-08-08T02:21:15;10.07;;;4.60;;
20908;SDS011;10614;53.198;6.570;2023-08-08T02:23:17;7.55;;;4.97;;
20908;SDS011;10614;53.198;6.570;2023-08-08T02:25:22;13.80;;;4.90;;
20908;SDS011;10614;53.198;6.570;2023-08-08T02:27:26;9.48;;;4.97;;
20908;SDS011;10614;53.198;6.570;2023-08-08T02:29:28;9.13;;;4.82;;
20908;SDS011;10614;53.198;6.570;2023-08-08T02:31:32;13.82;;;5.13;;
20908;SDS011;10614;53.198;6.570;2023-08-08T02:33:32;11.35;;;4.70;;
20908;SDS011;10614;53.198;6.570;2023-08-08T02:35:36;11.55;;;4.45;;
20908;SDS011;10614;53.198;6.570;2023-08-08T02:37:37;9.48;;;4.80;;
20908;SDS011;10614;53.198;6.570;2023-08-08T02:39:41;9.57;;;4.32;;
20908;SDS011;10614;53.198;6.570;2023-08-08T02:41:43;11.70;;;4.20;;
20908;SDS011;10614;53.198;6.570;2023-08-08T02:43:45;9.15;;;4.68;;
20908;SDS011;10614;53.198;6.570;2023-08-08T02:45:47;10.20;;;4.28;;
20908;SDS011;10614;53.198;6.570;2023-08-08T02:47:50;11.02;;;4.38;;
20908;SDS011;10614;53.198;6.570;2023-08-08T02:49:52;11.32;;;4.60;;
20908;SDS011;10614;53.198;6.570;2023-08-08T02:51:54;11.30;;;4.38;;
20908;SDS011;10614;53.198;6.570;2023-08-08T02:53:56;11.98;;;4.90;;
20908;SDS011;10614;53.198;6.570;2023-08-08T02:55:58;10.93;;;4.30;;
20908;SDS011;10614;53.198;6.570;2023-08-08T02:58:01;10.13;;;4.18;;
20908;SDS011;10614;53.198;6.570;2023-08-08T03:00:03;13.15;;;5.15;;
20908;SDS011;10614;53.198;6.570;2023-08-08T03:02:06;10.68;;;4.90;;
20908;SDS011;10614;53.198;6.570;2023-08-08T03:04:09;18.17;;;5.68;;
20908;SDS011;10614;53.198;6.570;2023-08-08T03:06:11;9.27;;;5.03;;
20908;SDS011;10614;53.198;6.570;2023-08-08T03:08:13;11.52;;;5.45;;
20908;SDS011;10614;53.198;6.570;2023-08-08T03:10:14;11.85;;;5.22;;
20908;SDS011;10614;53.198;6.570;2023-08-08T03:12:17;10.95;;;4.45;;
20908;SDS011;10614;53.198;6.570;2023-08-08T03:14:19;13.43;;;4.15;;
20908;SDS011;10614;53.198;6.570;2023-08-08T03:16:21;12.07;;;4.72;;
20908;SDS011;10614;53.198;6.570;2023-08-08T03:18:23;9.15;;;3.92;;
20908;SDS011;10614;53.198;6.570;2023-08-08T03:20:27;8.95;;;3.60;;
20908;SDS011;10614;53.198;6.570;2023-08-08T03:22:29;8.90;;;3.85;;
20908;SDS011;10614;53.198;6.570;2023-08-08T03:24:31;7.85;;;3.17;;
20908;SDS011;10614;53.198;6.570;2023-08-08T03:26:33;8.82;;;3.08;;
20908;SDS011;10614;53.198;6.570;2023-08-08T03:28:35;11.07;;;3.30;;
20908;SDS011;10614;53.198;6.570;2023-08-08T03:30:37;9.38;;;3.22;;
20908;SDS011;10614;53.198;6.570;2023-08-08T03:32:40;11.02;;;3.40;;
20908;SDS011;10614;53.198;6.570;2023-08-08T03:34:43;6.13;;;2.78;;
20908;SDS011;10614;53.198;6.570;2023-08-08T03:36:46;7.15;;;2.85;;
20908;SDS011;10614;53.198;6.570;2023-08-08T03:38:48;7.68;;;2.60;;
20908;SDS011;10614;53.198;6.570;2023-08-08T03:40:50;6.93;;;2.42;;
20908;SDS011;10614;53.198;6.570;2023-08-08T03:42:52;7.03;;;2.38;;
20908;SDS011;10614;53.198;6.570;2023-08-08T03:44:53;5.55;;;2.53;;
20908;SDS011;10614;53.198;6.570;2023-08-08T03:46:55;7.65;;;2.80;;
20908;SDS011;10614;53.198;6.570;2023-08-08T03:48:57;8.75;;;2.55;;
20908;SDS011;10614;53.198;6.570;2023-08-08T03:50:58;5.80;;;2.72;;
20908;SDS011;10614;53.198;6.570;2023-08-08T03:53:02;7.07;;;2.45;;
20908;SDS011;10614;53.198;6.570;2023-08-08T03:55:05;6.70;;;2.75;;
20908;SDS011;10614;53.198;6.570;2023-08-08T03:57:07;7.05;;;2.83;;
20908;SDS011;10614;53.198;6.570;2023-08-08T03:59:07;7.25;;;3.15;;
20908;SDS011;10614;53.198;6.570;2023-08-08T04:01:10;5.25;;;2.15;;
20908;SDS011;10614;53.198;6.570;2023-08-08T04:03:12;9.90;;;2.60;;
20908;SDS011;10614;53.198;6.570;2023-08-08T04:05:13;6.72;;;2.45;;
20908;SDS011;10614;53.198;6.570;2023-08-08T04:07:15;7.60;;;3.05;;
20908;SDS011;10614;53.198;6.570;2023-08-08T04:09:18;6.45;;;2.35;;
20908;SDS011;10614;53.198;6.570;2023-08-08T04:11:20;7.82;;;2.50;;
20908;SDS011;10614;53.198;6.570;2023-08-08T04:13:22;6.47;;;2.45;;
20908;SDS011;10614;53.198;6.570;2023-08-08T04:15:23;7.97;;;2.50;;
20908;SDS011;10614;53.198;6.570;2023-08-08T04:17:25;7.43;;;2.72;;
20908;SDS011;10614;53.198;6.570;2023-08-08T04:19:27;7.93;;;3.03;;
20908;SDS011;10614;53.198;6.570;2023-08-08T04:21:29;6.28;;;2.70;;
20908;SDS011;10614;53.198;6.570;2023-08-08T04:23:32;7.20;;;2.50;;
20908;SDS011;10614;53.198;6.570;2023-08-08T04:25:35;4.53;;;2.40;;
20908;SDS011;10614;53.198;6.570;2023-08-08T04:27:37;6.63;;;3.40;;
20908;SDS011;10614;53.198;6.570;2023-08-08T04:29:40;8.75;;;3.22;;
20908;SDS011;10614;53.198;6.570;2023-08-08T04:31:42;6.38;;;2.67;;
20908;SDS011;10614;53.198;6.570;2023-08-08T04:33:44;7.82;;;2.92;;
20908;SDS011;10614;53.198;6.570;2023-08-08T04:35:47;10.55;;;3.22;;
20908;SDS011;10614;53.198;6.570;2023-08-08T04:37:49;5.47;;;3.00;;
20908;SDS011;10614;53.198;6.570;2023-08-08T04:39:51;10.50;;;3.03;;
20908;SDS011;10614;53.198;6.570;2023-08-08T04:41:55;10.77;;;3.40;;
20908;SDS011;10614;53.198;6.570;2023-08-08T04:43:56;7.82;;;2.72;;
20908;SDS011;10614;53.198;6.570;2023-08-08T04:45:58;6.20;;;2.92;;
20908;SDS011;10614;53.198;6.570;2023-08-08T04:48:00;9.18;;;2.65;;
20908;SDS011;10614;53.198;6.570;2023-08-08T04:50:02;5.97;;;2.38;;
20908;SDS011;10614;53.198;6.570;2023-08-08T04:52:05;10.90;;;3.47;;
20908;SDS011;10614;53.198;6.570;2023-08-08T04:54:07;6.75;;;2.60;;
20908;SDS011;10614;53.198;6.570;2023-08-08T04:56:09;6.40;;;2.25;;
20908;SDS011;10614;53.198;6.570;2023-08-08T04:58:13;6.60;;;2.17;;
20908;SDS011;10614;53.198;6.570;2023-08-08T05:00:15;9.20;;;2.47;;
20908;SDS011;10614;53.198;6.570;2023-08-08T05:02:19;9.55;;;2.67;;
20908;SDS011;10614;53.198;6.570;2023-08-08T05:04:21;9.23;;;2.33;;
20908;SDS011;10614;53.198;6.570;2023-08-08T05:06:23;6.50;;;2.60;;
20908;SDS011;10614;53.198;6.570;2023-08-08T05:08:26;7.63;;;2.72;;
20908;SDS011;10614;53.198;6.570;2023-08-08T05:10:27;7.10;;;3.05;;
20908;SDS011;10614;53.198;6.570;2023-08-08T05:12:42;8.73;;;2.60;;
20908;SDS011;10614;53.198;6.570;2023-08-08T05:14:46;7.82;;;2.88;;
20908;SDS011;10614;53.198;6.570;2023-08-08T05:16:48;8.52;;;3.08;;
20908;SDS011;10614;53.198;6.570;2023-08-08T05:18:50;7.70;;;2.60;;
20908;SDS011;10614;53.198;6.570;2023-08-08T05:20:52;9.48;;;2.53;;
20908;SDS011;10614;53.198;6.570;2023-08-08T05:22:54;8.63;;;2.10;;
20908;SDS011;10614;53.198;6.570;2023-08-08T05:24:58;7.70;;;2.45;;
20908;SDS011;10614;53.198;6.570;2023-08-08T05:27:00;9.35;;;2.60;;
20908;SDS011;10614;53.198;6.570;2023-08-08T05:29:03;10.27;;;2.72;;
20908;SDS011;10614;53.198;6.570;2023-08-08T05:31:08;5.95;;;2.50;;
20908;SDS011;10614;53.198;6.570;2023-08-08T05:33:10;9.43;;;2.45;;
20908;SDS011;10614;53.198;6.570;2023-08-08T05:35:12;7.85;;;2.05;;
20908;SDS011;10614;53.198;6.570;2023-08-08T05:37:15;11.23;;;2.72;;
20908;SDS011;10614;53.198;6.570;2023-08-08T05:39:17;11.00;;;3.10;;
20908;SDS011;10614;53.198;6.570;2023-08-08T05:41:20;5.65;;;2.40;;
20908;SDS011;10614;53.198;6.570;2023-08-08T05:43:22;8.10;;;3.53;;
20908;SDS011;10614;53.198;6.570;2023-08-08T05:45:24;9.15;;;2.97;;
20908;SDS011;10614;53.198;6.570;2023-08-08T05:47:27;10.38;;;2.70;;
20908;SDS011;10614;53.198;6.570;2023-08-08T05:51:32;10.45;;;2.22;;
20908;SDS011;10614;53.198;6.570;2023-08-08T05:53:35;10.90;;;2.03;;
20908;SDS011;10614;53.198;6.570;2023-08-08T05:55:42;9.23;;;2.20;;
20908;SDS011;10614;53.198;6.570;2023-08-08T05:57:45;7.78;;;2.28;;
20908;SDS011;10614;53.198;6.570;2023-08-08T05:59:47;6.32;;;1.83;;
20908;SDS011;10614;53.198;6.570;2023-08-08T06:01:50;7.57;;;2.47;;
20908;SDS011;10614;53.198;6.570;2023-08-08T06:03:54;6.95;;;1.83;;
20908;SDS011;10614;53.198;6.570;2023-08-08T06:05:55;8.10;;;3.17;;
20908;SDS011;10614;53.198;6.570;2023-08-08T06:07:56;10.45;;;1.83;;
20908;SDS011;10614;53.198;6.570;2023-08-08T06:12:06;7.10;;;2.20;;
20908;SDS011;10614;53.198;6.570;2023-08-08T06:14:10;5.40;;;1.67;;
20908;SDS011;10614;53.198;6.570;2023-08-08T06:16:11;5.47;;;1.88;;
20908;SDS011;10614;53.198;6.570;2023-08-08T06:18:14;10.50;;;2.00;;
20908;SDS011;10614;53.198;6.570;2023-08-08T06:20:17;6.55;;;2.05;;
20908;SDS011;10614;53.198;6.570;2023-08-08T06:22:21;11.05;;;2.22;;
20908;SDS011;10614;53.198;6.570;2023-08-08T06:24:23;18.15;;;2.70;;
20908;SDS011;10614;53.198;6.570;2023-08-08T06:26:26;9.95;;;2.15;;
20908;SDS011;10614;53.198;6.570;2023-08-08T06:28:29;9.77;;;1.63;;
20908;SDS011;10614;53.198;6.570;2023-08-08T06:30:31;8.85;;;2.00;;
20908;SDS011;10614;53.198;6.570;2023-08-08T06:32:34;8.82;;;1.80;;
20908;SDS011;10614;53.198;6.570;2023-08-08T06:34:36;7.50;;;1.63;;
20908;SDS011;10614;53.198;6.570;2023-08-08T06:36:40;8.43;;;1.88;;
20908;SDS011;10614;53.198;6.570;2023-08-08T06:38:43;8.32;;;1.42;;
20908;SDS011;10614;53.198;6.570;2023-08-08T06:40:46;7.10;;;1.65;;
20908;SDS011;10614;53.198;6.570;2023-08-08T06:42:48;9.52;;;1.85;;
20908;SDS011;10614;53.198;6.570;2023-08-08T06:44:51;7.72;;;1.85;;
20908;SDS011;10614;53.198;6.570;2023-08-08T06:46:54;7.97;;;1.65;;
20908;SDS011;10614;53.198;6.570;2023-08-08T06:48:58;8.38;;;1.70;;
20908;SDS011;10614;53.198;6.570;2023-08-08T06:51:01;8.40;;;1.88;;
20908;SDS011;10614;53.198;6.570;2023-08-08T06:53:04;7.82;;;1.75;;
20908;SDS011;10614;53.198;6.570;2023-08-08T06:55:06;9.23;;;1.95;;
20908;SDS011;10614;53.198;6.570;2023-08-08T06:57:09;10.43;;;1.88;;
20908;SDS011;10614;53.198;6.570;2023-08-08T06:59:11;6.50;;;1.52;;
20908;SDS011;10614;53.198;6.570;2023-08-08T07:01:15;10.98;;;1.65;;
20908;SDS011;10614;53.198;6.570;2023-08-08T07:03:17;9.15;;;1.80;;
20908;SDS011;10614;53.198;6.570;2023-08-08T07:05:29;7.65;;;1.50;;
20908;SDS011;10614;53.198;6.570;2023-08-08T07:07:32;12.13;;;1.60;;
20908;SDS011;10614;53.198;6.570;2023-08-08T07:09:36;6.40;;;1.50;;
20908;SDS011;10614;53.198;6.570;2023-08-08T07:11:39;9.87;;;1.60;;
20908;SDS011;10614;53.198;6.570;2023-08-08T07:13:41;7.32;;;1.60;;
20908;SDS011;10614;53.198;6.570;2023-08-08T07:15:46;5.65;;;1.38;;
20908;SDS011;10614;53.198;6.570;2023-08-08T07:17:49;9.70;;;1.35;;
20908;SDS011;10614;53.198;6.570;2023-08-08T07:19:52;8.20;;;1.65;;
20908;SDS011;10614;53.198;6.570;2023-08-08T07:21:56;8.23;;;1.77;;
20908;SDS011;10614;53.198;6.570;2023-08-08T07:23:58;6.53;;;1.70;;
20908;SDS011;10614;53.198;6.570;2023-08-08T07:26:04;10.23;;;1.77;;
20908;SDS011;10614;53.198;6.570;2023-08-08T07:28:06;11.13;;;1.45;;
20908;SDS011;10614;53.198;6.570;2023-08-08T07:30:09;5.20;;;1.38;;
20908;SDS011;10614;53.198;6.570;2023-08-08T07:32:12;10.38;;;1.50;;
20908;SDS011;10614;53.198;6.570;2023-08-08T07:34:13;14.20;;;1.58;;
20908;SDS011;10614;53.198;6.570;2023-08-08T07:36:15;17.25;;;1.92;;
20908;SDS011;10614;53.198;6.570;2023-08-08T07:38:18;6.93;;;1.40;;
20908;SDS011;10614;53.198;6.570;2023-08-08T07:40:20;8.48;;;1.60;;
20908;SDS011;10614;53.198;6.570;2023-08-08T07:42:24;7.47;;;1.30;;
20908;SDS011;10614;53.198;6.570;2023-08-08T07:44:26;12.57;;;2.15;;
20908;SDS011;10614;53.198;6.570;2023-08-08T07:46:34;7.95;;;1.60;;
20908;SDS011;10614;53.198;6.570;2023-08-08T07:48:36;6.05;;;1.38;;
20908;SDS011;10614;53.198;6.570;2023-08-08T07:50:40;5.07;;;1.40;;
20908;SDS011;10614;53.198;6.570;2023-08-08T07:52:42;7.90;;;1.77;;
20908;SDS011;10614;53.198;6.570;2023-08-08T07:54:45;4.82;;;1.30;;
20908;SDS011;10614;53.198;6.570;2023-08-08T07:56:47;11.57;;;1.70;;
20908;SDS011;10614;53.198;6.570;2023-08-08T07:58:55;6.63;;;1.40;;
20908;SDS011;10614;53.198;6.570;2023-08-08T08:00:57;6.47;;;1.77;;
20908;SDS011;10614;53.198;6.570;2023-08-08T08:03:01;5.43;;;1.40;;
20908;SDS011;10614;53.198;6.570;2023-08-08T08:05:04;8.88;;;1.70;;
20908;SDS011;10614;53.198;6.570;2023-08-08T08:07:09;6.55;;;1.52;;
20908;SDS011;10614;53.198;6.570;2023-08-08T08:09:13;11.93;;;1.50;;
20908;SDS011;10614;53.198;6.570;2023-08-08T08:11:18;16.85;;;1.85;;
20908;SDS011;10614;53.198;6.570;2023-08-08T08:13:23;13.45;;;1.40;;
20908;SDS011;10614;53.198;6.570;2023-08-08T08:15:28;8.63;;;1.38;;
20908;SDS011;10614;53.198;6.570;2023-08-08T08:17:32;6.63;;;1.20;;
20908;SDS011;10614;53.198;6.570;2023-08-08T08:19:35;5.47;;;1.10;;
20908;SDS011;10614;53.198;6.570;2023-08-08T08:21:39;4.60;;;1.15;;
20908;SDS011;10614;53.198;6.570;2023-08-08T08:23:45;10.55;;;1.48;;
20908;SDS011;10614;53.198;6.570;2023-08-08T08:25:50;7.68;;;1.38;;
20908;SDS011;10614;53.198;6.570;2023-08-08T08:27:55;7.70;;;1.60;;
20908;SDS011;10614;53.198;6.570;2023-08-08T08:29:58;5.13;;;1.30;;
20908;SDS011;10614;53.198;6.570;2023-08-08T08:32:09;9.85;;;1.50;;
20908;SDS011;10614;53.198;6.570;2023-08-08T08:34:13;7.18;;;1.30;;
20908;SDS011;10614;53.198;6.570;2023-08-08T08:36:16;5.60;;;1.20;;
20908;SDS011;10614;53.198;6.570;2023-08-08T08:38:18;9.52;;;1.77;;
20908;SDS011;10614;53.198;6.570;2023-08-08T08:40:24;10.00;;;1.50;;
20908;SDS011;10614;53.198;6.570;2023-08-08T08:42:29;10.50;;;1.63;;
20908;SDS011;10614;53.198;6.570;2023-08-08T08:44:32;6.50;;;1.30;;
20908;SDS011;10614;53.198;6.570;2023-08-08T08:46:37;7.45;;;1.50;;
20908;SDS011;10614;53.198;6.570;2023-08-08T08:48:43;7.25;;;1.20;;
20908;SDS011;10614;53.198;6.570;2023-08-08T08:50:47;7.90;;;1.40;;
20908;SDS011;10614;53.198;6.570;2023-08-08T08:52:50;13.43;;;1.83;;
20908;SDS011;10614;53.198;6.570;2023-08-08T08:56:59;8.60;;;1.20;;
20908;SDS011;10614;53.198;6.570;2023-08-08T08:59:01;4.80;;;1.13;;
20908;SDS011;10614;53.198;6.570;2023-08-08T09:01:05;7.03;;;1.13;;
20908;SDS011;10614;53.198;6.570;2023-08-08T09:03:09;8.57;;;1.23;;
20908;SDS011;10614;53.198;6.570;2023-08-08T09:05:13;7.70;;;1.30;;
20908;SDS011;10614;53.198;6.570;2023-08-08T09:07:17;7.75;;;1.42;;
20908;SDS011;10614;53.198;6.570;2023-08-08T09:09:21;10.20;;;1.83;;
20908;SDS011;10614;53.198;6.570;2023-08-08T09:11:25;10.30;;;1.33;;
20908;SDS011;10614;53.198;6.570;2023-08-08T09:13:33;5.75;;;1.20;;
20908;SDS011;10614;53.198;6.570;2023-08-08T09:15:37;7.45;;;1.50;;
20908;SDS011;10614;53.198;6.570;2023-08-08T09:17:41;10.65;;;1.55;;
20908;SDS011;10614;53.198;6.570;2023-08-08T09:19:45;7.28;;;1.27;;
20908;SDS011;10614;53.198;6.570;2023-08-08T09:21:48;9.95;;;1.30;;
20908;SDS011;10614;53.198;6.570;2023-08-08T09:25:53;8.80;;;1.30;;
20908;SDS011;10614;53.198;6.570;2023-08-08T09:27:55;8.63;;;1.30;;
20908;SDS011;10614;53.198;6.570;2023-08-08T09:29:58;7.03;;;1.30;;
20908;SDS011;10614;53.198;6.570;2023-08-08T09:32:02;5.78;;;1.40;;
20908;SDS011;10614;53.198;6.570;2023-08-08T09:34:05;6.90;;;1.40;;
20908;SDS011;10614;53.198;6.570;2023-08-08T09:36:13;6.30;;;1.20;;
20908;SDS011;10614;53.198;6.570;2023-08-08T09:38:18;10.20;;;1.40;;
20908;SDS011;10614;53.198;6.570;2023-08-08T09:40:27;7.07;;;1.33;;
20908;SDS011;10614;53.198;6.570;2023-08-08T09:42:34;11.23;;;1.88;;
20908;SDS011;10614;53.198;6.570;2023-08-08T09:44:39;6.43;;;1.33;;
20908;SDS011;10614;53.198;6.570;2023-08-08T09:46:45;7.25;;;1.30;;
20908;SDS011;10614;53.198;6.570;2023-08-08T09:51:05;7.75;;;1.38;;
20908;SDS011;10614;53.198;6.570;2023-08-08T09:53:12;11.50;;;1.55;;
20908;SDS011;10614;53.198;6.570;2023-08-08T09:55:20;5.05;;;1.17;;
20908;SDS011;10614;53.198;6.570;2023-08-08T09:57:30;6.47;;;1.13;;
20908;SDS011;10614;53.198;6.570;2023-08-08T09:59:36;8.48;;;1.20;;
20908;SDS011;10614;53.198;6.570;2023-08-08T10:01:40;12.25;;;1.38;;
20908;SDS011;10614;53.198;6.570;2023-08-08T10:03:45;5.97;;;1.60;;
20908;SDS011;10614;53.198;6.570;2023-08-08T10:05:46;10.02;;;1.77;;
20908;SDS011;10614;53.198;6.570;2023-08-08T10:07:48;4.07;;;1.50;;
20908;SDS011;10614;53.198;6.570;2023-08-08T10:09:50;6.30;;;1.45;;
20908;SDS011;10614;53.198;6.570;2023-08-08T10:11:57;8.13;;;1.48;;
20908;SDS011;10614;53.198;6.570;2023-08-08T10:14:01;4.68;;;1.30;;
20908;SDS011;10614;53.198;6.570;2023-08-08T10:16:07;6.30;;;1.40;;
20908;SDS011;10614;53.198;6.570;2023-08-08T10:23:10;6.28;;;1.83;;
20908;SDS011;10614;53.198;6.570;2023-08-08T10:25:20;7.43;;;2.30;;
20908;SDS011;10614;53.198;6.570;2023-08-08T10:27:30;7.28;;;1.80;;
20908;SDS011;10614;53.198;6.570;2023-08-08T10:29:33;7.80;;;1.83;;
20908;SDS011;10614;53.198;6.570;2023-08-08T10:31:51;6.43;;;1.77;;
20908;SDS011;10614;53.198;6.570;2023-08-08T10:34:13;10.93;;;1.98;;
20908;SDS011;10614;53.198;6.570;2023-08-08T10:37:00;6.10;;;1.60;;
20908;SDS011;10614;53.198;6.570;2023-08-08T11:32:04;4.95;;;1.38;;
20908;SDS011;10614;53.198;6.570;2023-08-08T11:34:07;11.05;;;1.60;;
20908;SDS011;10614;53.198;6.570;2023-08-08T11:36:10;8.00;;;1.52;;
20908;SDS011;10614;53.198;6.570;2023-08-08T11:38:14;6.82;;;1.50;;
20908;SDS011;10614;53.198;6.570;2023-08-08T11:40:17;5.65;;;1.50;;
20908;SDS011;10614;53.198;6.570;2023-08-08T11:42:22;8.68;;;1.45;;
20908;SDS011;10614;53.198;6.570;2023-08-08T11:44:30;6.97;;;1.65;;
20908;SDS011;10614;53.198;6.570;2023-08-08T11:49:57;4.25;;;1.38;;
20908;SDS011;10614;53.198;6.570;2023-08-08T11:55:18;6.13;;;1.50;;
20908;SDS011;10614;53.198;6.570;2023-08-08T11:58:00;6.30;;;1.45;;
20908;SDS011;10614;53.198;6.570;2023-08-08T12:12:19;3.63;;;1.05;;
20908;SDS011;10614;53.198;6.570;2023-08-08T12:18:07;8.25;;;1.75;;
20908;SDS011;10614;53.198;6.570;2023-08-08T12:35:40;12.95;;;1.95;;
20908;SDS011;10614;53.198;6.570;2023-08-08T12:37:42;8.48;;;1.77;;
20908;SDS011;10614;53.198;6.570;2023-08-08T12:39:44;9.82;;;1.75;;
20908;SDS011;10614;53.198;6.570;2023-08-08T12:41:46;9.15;;;1.77;;
20908;SDS011;10614;53.198;6.570;2023-08-08T12:43:48;11.13;;;1.75;;
20908;SDS011;10614;53.198;6.570;2023-08-08T12:45:51;8.13;;;1.40;;
20908;SDS011;10614;53.198;6.570;2023-08-08T12:47:53;11.55;;;1.92;;
20908;SDS011;10614;53.198;6.570;2023-08-08T12:49:54;8.15;;;1.80;;
20908;SDS011;10614;53.198;6.570;2023-08-08T12:51:58;15.98;;;2.05;;
20908;SDS011;10614;53.198;6.570;2023-08-08T12:54:00;13.50;;;2.25;;
20908;SDS011;10614;53.198;6.570;2023-08-08T12:56:11;8.85;;;1.80;;
20908;SDS011;10614;53.198;6.570;2023-08-08T13:13:11;7.40;;;1.38;;
20908;SDS011;10614;53.198;6.570;2023-08-08T13:15:13;5.00;;;1.33;;
20908;SDS011;10614;53.198;6.570;2023-08-08T13:17:15;7.35;;;1.67;;
20908;SDS011;10614;53.198;6.570;2023-08-08T13:19:17;7.63;;;1.85;;
20908;SDS011;10614;53.198;6.570;2023-08-08T13:21:21;11.00;;;1.60;;
20908;SDS011;10614;53.198;6.570;2023-08-08T13:23:23;9.68;;;1.80;;
20908;SDS011;10614;53.198;6.570;2023-08-08T13:25:25;5.65;;;1.33;;
20908;SDS011;10614;53.198;6.570;2023-08-08T13:27:27;8.45;;;1.45;;
20908;SDS011;10614;53.198;6.570;2023-08-08T13:29:30;5.57;;;1.45;;
20908;SDS011;10614;53.198;6.570;2023-08-08T13:31:32;10.18;;;1.98;;
20908;SDS011;10614;53.198;6.570;2023-08-08T13:33:34;6.25;;;1.60;;
20908;SDS011;10614;53.198;6.570;2023-08-08T13:35:36;4.63;;;1.40;;
20908;SDS011;10614;53.198;6.570;2023-08-08T13:37:38;9.27;;;1.77;;
20908;SDS011;10614;53.198;6.570;2023-08-08T13:39:40;9.13;;;1.98;;
20908;SDS011;10614;53.198;6.570;2023-08-08T13:41:42;10.63;;;1.60;;
20908;SDS011;10614;53.198;6.570;2023-08-08T13:43:44;9.35;;;1.90;;
20908;SDS011;10614;53.198;6.570;2023-08-08T13:45:47;9.38;;;1.40;;
20908;SDS011;10614;53.198;6.570;2023-08-08T13:47:49;39.67;;;2.30;;
20908;SDS011;10614;53.198;6.570;2023-08-08T13:49:51;11.05;;;1.42;;
20908;SDS011;10614;53.198;6.570;2023-08-08T13:51:53;7.80;;;1.40;;
20908;SDS011;10614;53.198;6.570;2023-08-08T13:53:56;11.05;;;1.52;;
20908;SDS011;10614;53.198;6.570;2023-08-08T13:56:39;9.75;;;1.60;;
20908;SDS011;10614;53.198;6.570;2023-08-08T13:58:43;7.82;;;1.60;;
20908;SDS011;10614;53.198;6.570;2023-08-08T15:05:15;7.45;;;1.60;;
20908;SDS011;10614;53.198;6.570;2023-08-08T15:07:17;9.32;;;1.35;;
20908;SDS011;10614;53.198;6.570;2023-08-08T15:09:32;6.88;;;1.63;;
20908;SDS011;10614;53.198;6.570;2023-08-08T15:11:47;4.95;;;1.40;;
20908;SDS011;10614;53.198;6.570;2023-08-08T15:13:49;5.65;;;1.42;;
20908;SDS011;10614;53.198;6.570;2023-08-08T15:15:52;10.15;;;1.48;;
20908;SDS011;10614;53.198;6.570;2023-08-08T15:21:09;8.55;;;1.42;;
20908;SDS011;10614;53.198;6.570;2023-08-08T15:26:44;6.30;;;1.17;;
20908;SDS011;10614;53.198;6.570;2023-08-08T15:29:16;7.13;;;1.83;;
20908;SDS011;10614;53.198;6.570;2023-08-08T15:31:39;6.65;;;1.38;;
20908;SDS011;10614;53.198;6.570;2023-08-08T15:33:42;8.90;;;1.67;;
20908;SDS011;10614;53.198;6.570;2023-08-08T15:35:45;7.22;;;1.25;;
20908;SDS011;10614;53.198;6.570;2023-08-08T15:40:14;5.22;;;1.20;;
20908;SDS011;10614;53.198;6.570;2023-08-08T15:42:19;8.65;;;1.30;;
20908;SDS011;10614;53.198;6.570;2023-08-08T15:44:23;9.25;;;1.40;;
20908;SDS011;10614;53.198;6.570;2023-08-08T15:46:25;11.18;;;1.70;;